createdAt,value
2023-05-25T00:01:00.473Z,43.50
2023-05-25T00:03:33.112Z,40.20
2023-05-25T00:06:02.334Z,43.90
2023-05-25T00:08:30.727Z,43.30
2023-05-25T00:10:58.779Z,42.00
2023-05-25T00:13:26.517Z,42.50
2023-05-25T00:15:54.320Z,44.50
2023-05-25T00:18:22.782Z,42.90
2023-05-25T00:20:54.331Z,43.40
2023-05-25T00:23:22.270Z,45.00
2023-05-25T00:25:50.208Z,46.60
2023-05-25T00:28:18.019Z,42.60
2023-05-25T00:30:45.850Z,39.00
2023-05-25T00:33:14.156Z,41.80
2023-05-25T00:35:43.565Z,41.50
2023-05-25T00:38:16.953Z,44.90
2023-05-25T00:40:45.608Z,46.60
2023-05-25T00:43:13.741Z,44.90
2023-05-25T00:45:41.613Z,46.30
2023-05-25T00:48:10.893Z,47.50
2023-05-25T00:50:41.996Z,45.30
2023-05-25T00:53:12.050Z,43.40
2023-05-25T00:55:49.624Z,43.10
2023-05-25T00:58:21.234Z,43.10
2023-05-25T01:00:51.649Z,44.30
2023-05-25T01:03:22.550Z,43.30
2023-05-25T01:05:52.261Z,44.80
2023-05-25T01:08:22.807Z,44.10
2023-05-25T01:10:52.644Z,39.60
2023-05-25T01:13:21.414Z,41.00
2023-05-25T01:15:51.913Z,40.70
2023-05-25T01:18:19.723Z,40.50
2023-05-25T01:21:14.809Z,41.40
2023-05-25T01:23:51.409Z,43.20
2023-05-25T01:26:23.877Z,46.40
2023-05-25T01:28:53.973Z,43.10
2023-05-25T01:31:23.587Z,41.80
2023-05-25T01:33:53.449Z,41.20
2023-05-25T01:36:21.518Z,43.40
2023-05-25T01:38:50.076Z,45.30
2023-05-25T01:41:18.335Z,39.70
2023-05-25T01:43:46.695Z,40.10
2023-05-25T01:46:28.120Z,39.60
2023-05-25T01:49:08.869Z,38.20
2023-05-25T01:51:44.911Z,41.80
2023-05-25T01:54:30.669Z,42.10
2023-05-25T01:57:02.027Z,45.40
2023-05-25T01:59:31.828Z,42.10
2023-05-25T02:02:01.455Z,41.00
2023-05-25T02:04:30.603Z,46.00
2023-05-25T02:06:58.366Z,43.00
2023-05-25T02:09:26.157Z,37.40
2023-05-25T02:11:54.335Z,42.90
2023-05-25T02:14:22.772Z,43.20
2023-05-25T02:16:50.965Z,43.70
2023-05-25T02:19:19.298Z,42.80
2023-05-25T02:21:47.192Z,40.80
2023-05-25T02:24:14.956Z,43.50
2023-05-25T02:26:42.666Z,45.50
2023-05-25T02:29:11.798Z,40.00
2023-05-25T02:31:40.172Z,39.20
2023-05-25T02:34:07.954Z,41.60
2023-05-25T02:36:36.529Z,42.10
2023-05-25T02:39:04.290Z,40.10
2023-05-25T02:41:31.993Z,44.10
2023-05-25T02:44:00.192Z,43.20
2023-05-25T02:46:28.584Z,40.30
2023-05-25T02:48:59.106Z,42.90
2023-05-25T02:51:28.035Z,29.40
2023-05-25T02:53:55.784Z,47.00
2023-05-25T02:56:23.581Z,46.80
2023-05-25T02:58:51.828Z,51.70
2023-05-25T03:01:20.109Z,48.20
2023-05-25T03:03:52.660Z,47.40
2023-05-25T03:06:23.397Z,46.40
2023-05-25T03:08:51.194Z,47.20
2023-05-25T03:11:18.973Z,46.00
2023-05-25T03:13:47.764Z,46.00
2023-05-25T03:16:15.559Z,50.00
2023-05-25T03:18:43.714Z,50.90
2023-05-25T03:21:11.499Z,44.00
2023-05-25T03:23:39.282Z,46.30
2023-05-25T03:26:07.611Z,46.90
2023-05-25T03:28:36.021Z,46.60
2023-05-25T03:31:04.696Z,47.10
2023-05-25T03:33:33.410Z,47.20
2023-05-25T03:36:01.653Z,41.40
2023-05-25T03:38:29.401Z,46.70
2023-05-25T03:40:57.580Z,46.50
2023-05-25T03:43:26.077Z,47.10
2023-05-25T03:45:53.915Z,48.90
2023-05-25T03:48:21.719Z,47.00
2023-05-25T03:50:49.581Z,49.30
2023-05-25T03:53:17.749Z,50.80
2023-05-25T03:55:46.290Z,49.20
2023-05-25T03:58:14.800Z,49.30
2023-05-25T04:00:42.639Z,49.00
2023-05-25T04:03:11.159Z,54.50
2023-05-25T04:05:39.389Z,50.10
2023-05-25T04:08:08.646Z,51.90
2023-05-25T04:10:36.470Z,48.00
2023-05-25T04:13:04.233Z,54.10
2023-05-25T04:15:34.677Z,50.60
2023-05-25T04:18:03.260Z,56.00
2023-05-25T04:20:31.077Z,56.30
2023-05-25T04:22:58.889Z,57.50
2023-05-25T04:25:42.284Z,56.10
2023-05-25T04:28:12.545Z,54.90
2023-05-25T04:30:41.779Z,59.00
2023-05-25T04:33:11.710Z,61.90
2023-05-25T04:35:40.968Z,64.10
2023-05-25T04:38:08.850Z,55.40
2023-05-25T04:40:37.159Z,62.90
2023-05-25T04:43:05.276Z,58.70
2023-05-25T04:45:33.586Z,55.90
2023-05-25T04:48:01.950Z,59.80
2023-05-25T04:50:29.847Z,57.60
2023-05-25T04:52:57.658Z,59.00
2023-05-25T04:55:25.958Z,67.60
2023-05-25T04:57:55.060Z,58.10
2023-05-25T05:00:22.913Z,60.40
2023-05-25T05:02:51.618Z,61.40
2023-05-25T05:05:19.558Z,65.10
2023-05-25T05:07:47.507Z,64.70
2023-05-25T05:10:15.870Z,61.90
2023-05-25T05:12:44.148Z,64.50
2023-05-25T05:15:12.123Z,64.90
2023-05-25T05:17:39.895Z,60.50
2023-05-25T05:20:08.628Z,63.70
2023-05-25T05:22:37.902Z,61.50
2023-05-25T05:25:07.485Z,63.10
2023-05-25T05:27:36.183Z,59.40
2023-05-25T05:30:04.551Z,65.70
2023-05-25T05:32:32.353Z,69.50
2023-05-25T05:35:00.876Z,61.60
2023-05-25T05:37:28.674Z,65.90
2023-05-25T05:39:56.806Z,67.80
2023-05-25T05:42:25.133Z,59.80
2023-05-25T05:44:52.922Z,61.40
2023-05-25T05:47:21.444Z,66.00
2023-05-25T05:49:49.244Z,61.60
2023-05-25T05:52:17.520Z,63.50
2023-05-25T05:54:45.813Z,70.80
2023-05-25T05:57:13.544Z,71.90
2023-05-25T05:59:42.152Z,64.20
2023-05-25T06:02:10.256Z,70.50
2023-05-25T06:04:38.562Z,67.80
2023-05-25T06:07:07.038Z,66.50
2023-05-25T06:09:35.297Z,69.80
2023-05-25T06:12:03.652Z,63.90
2023-05-25T06:14:31.977Z,67.90
2023-05-25T06:16:59.986Z,71.80
2023-05-25T06:19:28.006Z,69.70
2023-05-25T06:21:56.270Z,61.70
2023-05-25T06:24:24.657Z,64.80
2023-05-25T06:26:52.440Z,66.80
2023-05-25T06:29:20.262Z,67.20
2023-05-25T06:31:48.086Z,73.60
2023-05-25T06:34:16.415Z,74.50
2023-05-25T06:36:44.702Z,73.00
2023-05-25T06:39:12.602Z,63.50
2023-05-25T06:41:40.780Z,68.80
2023-05-25T06:44:09.232Z,71.50
2023-05-25T06:46:37.433Z,65.40
2023-05-25T06:49:05.884Z,68.70
2023-05-25T06:51:34.459Z,66.70
2023-05-25T06:54:02.250Z,75.90
2023-05-25T06:56:30.171Z,71.00
2023-05-25T06:59:00.000Z,69.70
2023-05-25T07:01:28.308Z,65.60
2023-05-25T07:03:56.755Z,67.60
2023-05-25T07:06:24.571Z,63.60
2023-05-25T07:08:52.311Z,68.70
2023-05-25T07:11:22.117Z,66.90
2023-05-25T07:13:50.025Z,66.90
2023-05-25T07:16:18.356Z,72.00
2023-05-25T07:18:46.840Z,70.10
2023-05-25T07:21:14.738Z,69.80
2023-05-25T07:23:42.489Z,64.50
2023-05-25T07:26:10.293Z,66.50
2023-05-25T07:28:38.148Z,68.00
2023-05-25T07:31:06.386Z,64.40
2023-05-25T07:33:34.592Z,59.70
2023-05-25T07:36:02.439Z,64.30
2023-05-25T07:38:30.288Z,64.20
2023-05-25T07:40:58.144Z,62.10
2023-05-25T07:43:25.951Z,64.30
2023-05-25T07:45:54.870Z,59.80
2023-05-25T07:48:23.210Z,61.10
2023-05-25T07:50:50.986Z,59.90
2023-05-25T07:53:18.754Z,61.00
2023-05-25T07:55:46.740Z,58.90
2023-05-25T07:58:14.839Z,62.40
2023-05-25T08:00:43.940Z,63.60
2023-05-25T08:03:12.459Z,64.50
2023-05-25T08:05:40.887Z,63.80
2023-05-25T08:08:09.891Z,62.00
2023-05-25T08:10:37.680Z,62.90
2023-05-25T08:13:05.957Z,61.80
2023-05-25T08:15:34.209Z,66.40
2023-05-25T08:18:04.545Z,57.80
2023-05-25T08:20:32.545Z,62.30
2023-05-25T08:23:01.955Z,64.00
2023-05-25T08:25:29.810Z,63.20
2023-05-25T08:27:58.228Z,62.90
2023-05-25T08:30:26.629Z,65.50
2023-05-25T08:32:54.591Z,60.00
2023-05-25T08:35:22.491Z,65.30
2023-05-25T08:37:50.218Z,66.30
2023-05-25T08:40:21.806Z,64.30
2023-05-25T08:42:49.640Z,67.30
2023-05-25T08:45:33.671Z,67.40
2023-05-25T08:48:09.474Z,68.40
2023-05-25T08:50:39.050Z,64.90
2023-05-25T08:53:11.901Z,63.00
2023-05-25T08:55:43.914Z,70.80
2023-05-25T08:58:17.298Z,69.20
2023-05-25T09:00:55.276Z,71.60
2023-05-25T09:03:24.112Z,71.10
2023-05-25T09:05:52.628Z,70.80
2023-05-25T09:08:22.471Z,71.20
2023-05-25T09:10:52.170Z,67.80
2023-05-25T09:13:22.621Z,68.00
2023-05-25T09:15:53.109Z,72.50
2023-05-25T09:18:21.620Z,63.10
2023-05-25T09:20:50.049Z,63.40
2023-05-25T09:23:19.125Z,65.50
2023-05-25T09:25:50.690Z,64.90
2023-05-25T09:30:53.205Z,64.50
2023-05-25T09:33:21.565Z,66.50
2023-05-25T09:35:49.523Z,64.40
2023-05-25T09:38:17.604Z,65.50
2023-05-25T09:40:46.082Z,60.50
2023-05-25T09:43:21.960Z,60.50
2023-05-25T09:45:57.138Z,61.30
2023-05-25T09:48:26.338Z,61.10
2023-05-25T09:50:54.093Z,57.30
2023-05-25T09:53:21.860Z,57.80
2023-05-25T09:55:54.323Z,57.30
2023-05-25T09:58:25.290Z,51.90
2023-05-25T10:00:55.632Z,52.90
2023-05-25T10:03:23.644Z,54.60
2023-05-25T10:05:53.556Z,48.20
2023-05-25T10:08:22.243Z,47.70
2023-05-25T10:10:51.473Z,48.50
2023-05-25T10:13:23.063Z,44.30
2023-05-25T10:15:54.535Z,41.70
2023-05-25T10:18:28.138Z,40.80
2023-05-25T10:23:42.153Z,36.20
2023-05-25T10:26:15.063Z,41.20
2023-05-25T10:28:46.083Z,37.80
2023-05-25T10:31:16.946Z,42.30
2023-05-25T10:33:50.550Z,41.60
2023-05-25T10:36:21.349Z,44.10
2023-05-25T10:38:51.527Z,37.50
2023-05-25T10:41:21.798Z,39.40
2023-05-25T10:43:51.481Z,35.00
2023-05-25T10:46:19.634Z,39.60
2023-05-25T10:48:49.656Z,36.90
2023-05-25T10:51:20.724Z,35.40
2023-05-25T10:54:02.301Z,44.30
2023-05-25T10:56:30.216Z,39.50
2023-05-25T10:58:58.694Z,39.60
2023-05-25T11:01:27.056Z,31.10
2023-05-25T11:04:11.385Z,32.60
2023-05-25T11:06:45.799Z,32.60
2023-05-25T11:09:25.590Z,34.30
2023-05-25T11:11:55.591Z,35.50
2023-05-25T11:14:29.871Z,35.20
2023-05-25T11:17:06.414Z,35.80
2023-05-25T11:19:50.127Z,35.30
2023-05-25T11:22:23.783Z,36.60
2023-05-25T11:24:53.178Z,38.40
2023-05-25T11:27:27.440Z,38.80
2023-05-25T11:29:59.434Z,38.40
2023-05-25T11:32:28.333Z,29.30
2023-05-25T11:34:58.254Z,32.50
2023-05-25T11:37:31.886Z,32.40
2023-05-25T11:40:00.765Z,36.50
2023-05-25T11:42:29.871Z,32.60
2023-05-25T11:45:02.645Z,30.50
2023-05-25T11:47:32.751Z,30.20
2023-05-25T11:50:01.461Z,31.40
2023-05-25T11:52:29.344Z,32.30
2023-05-25T11:54:58.044Z,33.90
2023-05-25T11:57:26.328Z,28.70
2023-05-25T12:00:00.424Z,31.70
2023-05-25T12:02:28.336Z,32.10
2023-05-25T12:05:02.572Z,31.80
2023-05-25T12:07:34.350Z,29.90
2023-05-25T12:10:06.045Z,30.30
2023-05-25T12:12:40.479Z,35.30
2023-05-25T12:15:15.347Z,31.40
2023-05-25T12:17:45.595Z,33.60
2023-05-25T12:20:15.588Z,32.20
2023-05-25T12:22:44.814Z,34.50
2023-05-25T12:25:14.113Z,32.50
2023-05-25T12:27:42.350Z,31.70
2023-05-25T12:30:12.850Z,30.20
2023-05-25T12:32:54.836Z,26.10
2023-05-25T12:35:22.758Z,28.50
2023-05-25T12:37:50.488Z,29.00
2023-05-25T12:40:20.953Z,28.70
2023-05-25T12:42:57.210Z,30.50
2023-05-25T12:45:25.080Z,29.60
2023-05-25T12:47:52.917Z,26.30
2023-05-25T12:50:20.830Z,27.00
2023-05-25T12:52:48.839Z,31.90
2023-05-25T12:55:22.677Z,27.40
2023-05-25T12:57:52.842Z,26.70
2023-05-25T13:00:41.779Z,33.90
2023-05-25T13:03:09.687Z,27.10
2023-05-25T13:05:38.776Z,33.60
2023-05-25T13:08:07.250Z,44.10
2023-05-25T13:10:38.321Z,27.20
2023-05-25T13:13:06.074Z,27.00
2023-05-25T13:15:33.819Z,26.60
2023-05-25T13:18:01.631Z,23.90
2023-05-25T13:20:30.705Z,27.80
2023-05-25T13:22:58.919Z,26.20
2023-05-25T13:25:29.990Z,27.40
2023-05-25T13:27:59.932Z,30.20
2023-05-25T13:30:27.858Z,27.20
2023-05-25T13:32:55.619Z,28.40
2023-05-25T13:35:37.419Z,40.50
2023-05-25T13:38:06.503Z,28.50
2023-05-25T13:40:34.582Z,29.00
2023-05-25T13:43:02.354Z,35.40
2023-05-25T13:45:30.169Z,33.70
2023-05-25T13:47:57.957Z,31.00
2023-05-25T13:50:26.313Z,33.00
2023-05-25T13:52:54.378Z,33.60
2023-05-25T13:55:23.343Z,31.90
2023-05-25T13:57:52.238Z,30.80
2023-05-25T14:00:20.409Z,29.10
2023-05-25T14:02:48.979Z,31.00
2023-05-25T14:05:16.886Z,31.60
2023-05-25T14:07:44.657Z,32.60
2023-05-25T14:10:12.556Z,29.40
2023-05-25T14:12:41.132Z,31.60
2023-05-25T14:15:09.803Z,28.90
2023-05-25T14:17:38.003Z,34.40
2023-05-25T14:20:07.195Z,34.00
2023-05-25T14:22:34.988Z,33.60
2023-05-25T14:25:02.806Z,30.50
2023-05-25T14:27:30.603Z,32.00
2023-05-25T14:29:58.902Z,33.10
2023-05-25T14:32:27.162Z,32.30
2023-05-25T14:34:54.907Z,31.60
2023-05-25T14:37:22.666Z,31.20
2023-05-25T14:39:50.388Z,33.90
2023-05-25T14:42:18.224Z,31.90
2023-05-25T14:44:46.364Z,31.20
2023-05-25T14:47:14.834Z,29.30
2023-05-25T14:49:42.737Z,33.30
2023-05-25T14:52:10.591Z,30.20
2023-05-25T14:54:44.027Z,32.30
2023-05-25T14:57:12.302Z,31.40
2023-05-25T14:59:40.519Z,31.10
2023-05-25T15:02:08.924Z,32.20
2023-05-25T15:04:36.694Z,30.10
2023-05-25T15:07:04.659Z,34.70
2023-05-25T15:09:33.566Z,30.20
2023-05-25T15:12:02.152Z,30.80
2023-05-25T15:14:30.719Z,30.90
2023-05-25T15:16:59.602Z,30.60
2023-05-25T15:19:27.355Z,30.80
2023-05-25T15:21:55.042Z,31.10
2023-05-25T15:24:22.744Z,31.00
2023-05-25T15:26:50.467Z,31.80
2023-05-25T15:29:18.704Z,30.10
2023-05-25T15:31:50.102Z,31.90
2023-05-25T15:34:17.852Z,28.70
2023-05-25T15:36:47.571Z,27.60
2023-05-25T15:39:15.665Z,30.20
2023-05-25T15:41:44.022Z,29.10
2023-05-25T15:44:12.728Z,30.90
2023-05-25T15:46:41.138Z,29.10
2023-05-25T15:49:12.181Z,31.50
2023-05-25T15:51:44.636Z,31.40
2023-05-25T15:54:14.770Z,32.50
2023-05-25T15:56:43.355Z,29.60
2023-05-25T15:59:12.683Z,29.60
2023-05-25T16:01:40.801Z,29.10
2023-05-25T16:04:09.003Z,36.50
2023-05-25T16:06:38.502Z,30.90
2023-05-25T16:09:07.043Z,30.10
2023-05-25T16:11:34.849Z,31.20
2023-05-25T16:14:02.596Z,31.90
2023-05-25T16:16:30.406Z,34.30
2023-05-25T16:18:58.213Z,32.70
2023-05-25T16:21:26.870Z,30.10
2023-05-25T16:23:55.231Z,33.10
2023-05-25T16:26:23.989Z,31.90
2023-05-25T16:28:51.712Z,32.10
2023-05-25T16:31:19.526Z,33.90
2023-05-25T16:33:47.433Z,30.70
2023-05-25T16:36:16.822Z,29.20
2023-05-25T16:38:45.862Z,30.90
2023-05-25T16:41:13.600Z,32.20
2023-05-25T16:43:41.442Z,40.30
2023-05-25T16:46:09.256Z,34.80
2023-05-25T16:48:36.989Z,34.90
2023-05-25T16:51:05.261Z,33.90
2023-05-25T16:53:33.588Z,35.40
2023-05-25T16:56:01.409Z,34.30
2023-05-25T16:58:29.155Z,32.60
2023-05-25T17:00:56.830Z,34.30
2023-05-25T17:03:24.626Z,34.90
2023-05-25T17:05:53.910Z,33.40
2023-05-25T17:08:22.224Z,35.80
2023-05-25T17:10:49.997Z,32.30
2023-05-25T17:13:17.717Z,34.00
2023-05-25T17:15:45.554Z,33.30
2023-05-25T17:18:13.548Z,38.10
2023-05-25T17:20:41.967Z,35.80
2023-05-25T17:23:10.328Z,38.80
2023-05-25T17:25:39.464Z,36.80
2023-05-25T17:28:07.348Z,37.50
2023-05-25T17:30:35.137Z,39.70
2023-05-25T17:33:02.868Z,38.30
2023-05-25T17:35:31.323Z,36.30
2023-05-25T17:37:59.655Z,39.40
2023-05-25T17:40:27.351Z,35.80
2023-05-25T17:42:55.083Z,37.20
2023-05-25T17:45:22.853Z,36.50
2023-05-25T17:47:50.770Z,33.60
2023-05-25T17:50:19.051Z,43.00
2023-05-25T17:52:47.336Z,40.20
2023-05-25T17:55:15.047Z,37.00
2023-05-25T17:57:42.852Z,35.10
2023-05-25T18:00:11.113Z,39.70
2023-05-25T18:02:38.971Z,45.90
2023-05-25T18:05:07.582Z,47.70
2023-05-25T18:07:35.738Z,47.90
2023-05-25T18:10:03.628Z,44.90
2023-05-25T18:12:31.469Z,47.50
2023-05-25T18:14:59.184Z,46.20
2023-05-25T18:17:26.955Z,45.70
2023-05-25T18:19:55.241Z,47.80
2023-05-25T18:22:23.385Z,47.00
2023-05-25T18:24:51.198Z,46.20
2023-05-25T18:27:19.058Z,43.70
2023-05-25T18:29:46.767Z,44.70
2023-05-25T18:32:14.448Z,63.50
2023-05-25T18:34:45.039Z,82.90
2023-05-25T18:37:13.260Z,86.20
2023-05-25T18:39:41.708Z,72.40
2023-05-25T18:42:09.422Z,60.90
2023-05-25T18:44:37.114Z,51.20
2023-05-25T18:47:05.080Z,46.00
2023-05-25T18:49:34.671Z,46.40
2023-05-25T18:52:04.002Z,45.00
2023-05-25T18:54:31.656Z,44.90
2023-05-25T18:56:59.358Z,48.40
2023-05-25T18:59:27.158Z,46.90
2023-05-25T19:01:55.012Z,49.20
2023-05-25T19:04:23.286Z,49.30
2023-05-25T19:06:51.648Z,48.70
2023-05-25T19:09:19.341Z,45.50
2023-05-25T19:11:47.030Z,49.10
2023-05-25T19:14:14.773Z,51.40
2023-05-25T19:16:43.412Z,46.60
2023-05-25T19:19:11.877Z,46.90
2023-05-25T19:21:39.580Z,47.40
2023-05-25T19:24:09.854Z,49.20
2023-05-25T19:26:38.868Z,52.10
2023-05-25T19:29:07.164Z,45.10
2023-05-25T19:31:35.467Z,46.00
2023-05-25T19:34:03.295Z,44.50
2023-05-25T19:36:31.173Z,49.40
2023-05-25T19:38:58.901Z,48.80
2023-05-25T19:41:26.701Z,47.50
2023-05-25T19:43:55.008Z,46.50
2023-05-25T19:46:23.946Z,50.40
2023-05-25T19:48:52.086Z,46.40
2023-05-25T19:51:19.798Z,45.80
2023-05-25T19:53:49.091Z,50.00
2023-05-25T19:56:16.917Z,52.60
2023-05-25T19:58:45.193Z,61.60
2023-05-25T20:01:13.554Z,54.60
2023-05-25T20:03:41.807Z,43.40
2023-05-25T20:06:09.925Z,41.70
2023-05-25T20:08:37.693Z,47.40
2023-05-25T20:11:05.596Z,44.70
2023-05-25T20:13:34.233Z,46.90
2023-05-25T20:16:02.590Z,43.50
2023-05-25T20:18:30.318Z,44.60
2023-05-25T20:20:58.017Z,47.50
2023-05-25T20:23:25.899Z,47.90
2023-05-25T20:25:53.715Z,49.80
2023-05-25T20:28:21.972Z,47.80
2023-05-25T20:30:50.615Z,49.70
2023-05-25T20:33:18.393Z,51.00
2023-05-25T20:35:46.457Z,46.60
2023-05-25T20:38:14.399Z,50.00
2023-05-25T20:40:42.136Z,53.60
2023-05-25T20:43:10.401Z,48.40
2023-05-25T20:45:38.744Z,48.10
2023-05-25T20:48:06.591Z,48.90
2023-05-25T20:50:34.448Z,44.40
2023-05-25T20:53:02.163Z,48.20
2023-05-25T20:55:30.763Z,45.50
2023-05-25T20:58:15.036Z,46.40
2023-05-25T21:00:50.013Z,49.20
2023-05-25T21:03:18.230Z,48.70
2023-05-25T21:05:46.773Z,43.90
2023-05-25T21:08:15.392Z,47.80
2023-05-25T21:10:43.124Z,53.30
2023-05-25T21:13:10.958Z,50.50
2023-05-25T21:15:39.158Z,46.40
2023-05-25T21:18:08.578Z,45.70
2023-05-25T21:20:37.181Z,46.30
2023-05-25T21:23:04.916Z,41.30
2023-05-25T21:25:32.624Z,46.60
2023-05-25T21:28:00.326Z,49.10
2023-05-25T21:30:28.560Z,48.70
2023-05-25T21:32:56.798Z,49.70
2023-05-25T21:35:24.579Z,48.90
2023-05-25T21:37:52.370Z,51.00
2023-05-25T21:40:20.086Z,50.90
2023-05-25T21:42:50.347Z,55.40
2023-05-25T21:45:20.058Z,48.90
2023-05-25T21:47:47.996Z,48.90
2023-05-25T21:50:16.613Z,49.00
2023-05-25T21:52:44.356Z,52.10
2023-05-25T21:55:12.107Z,51.20
2023-05-25T21:57:40.365Z,50.40
2023-05-25T22:00:10.766Z,52.50
2023-05-25T22:02:38.525Z,52.00
2023-05-25T22:05:07.230Z,52.90
2023-05-25T22:07:34.939Z,54.90
2023-05-25T22:10:02.653Z,57.60
2023-05-25T22:12:30.349Z,55.40
2023-05-25T22:14:58.049Z,62.00
2023-05-25T22:17:26.059Z,60.70
2023-05-25T22:20:06.502Z,64.90
2023-05-25T22:22:37.505Z,64.70
2023-05-25T22:25:06.235Z,67.10
2023-05-25T22:27:33.985Z,67.50
2023-05-25T22:30:01.909Z,63.70
2023-05-25T22:32:29.743Z,70.30
2023-05-25T22:34:57.450Z,64.70
2023-05-25T22:37:25.391Z,66.80
2023-05-25T22:39:53.639Z,63.20
2023-05-25T22:42:21.903Z,68.40
2023-05-25T22:44:51.360Z,67.90
2023-05-25T22:47:19.192Z,66.80
2023-05-25T22:49:46.939Z,72.10
2023-05-25T22:52:14.650Z,71.40
2023-05-25T22:54:43.139Z,70.20
2023-05-25T22:57:10.866Z,67.00
2023-05-25T22:59:38.693Z,68.10
2023-05-25T23:02:06.972Z,68.50
2023-05-25T23:04:38.172Z,67.60
2023-05-25T23:07:05.909Z,68.70
2023-05-25T23:09:33.624Z,67.10
2023-05-25T23:12:01.913Z,67.50
2023-05-25T23:14:30.654Z,69.10
2023-05-25T23:16:58.429Z,71.90
2023-05-25T23:19:26.116Z,70.70
2023-05-25T23:21:54.552Z,64.50
2023-05-25T23:24:22.327Z,65.80
2023-05-25T23:26:50.154Z,63.20
2023-05-25T23:29:17.851Z,65.80
2023-05-25T23:31:45.601Z,68.00
2023-05-25T23:34:13.385Z,64.90
2023-05-25T23:36:42.982Z,65.40
2023-05-25T23:39:10.689Z,63.80
2023-05-25T23:41:38.739Z,66.90
2023-05-25T23:44:06.549Z,68.00
2023-05-25T23:46:34.376Z,70.50
2023-05-25T23:49:02.101Z,66.60
2023-05-25T23:51:30.846Z,65.30
2023-05-25T23:53:58.600Z,69.70
2023-05-25T23:56:27.931Z,69.20
2023-05-25T23:58:56.955Z,67.10
